createdAt,value
2018-07-17T05:05:31.559Z,4.70
2018-07-17T05:10:34.882Z,5.07
2018-07-17T05:15:38.967Z,5.43
2018-07-17T05:20:42.397Z,5.60
2018-07-17T05:25:46.107Z,5.20
2018-07-17T05:30:49.446Z,6.03
2018-07-17T05:35:52.793Z,5.37
2018-07-17T05:40:56.127Z,5.10
2018-07-17T05:45:59.449Z,5.20
2018-07-17T05:51:02.778Z,4.57
2018-07-17T05:56:06.107Z,6.13
2018-07-17T06:01:09.437Z,4.77
2018-07-17T06:06:13.534Z,5.53
2018-07-17T06:11:16.863Z,5.57
2018-07-17T06:16:21.874Z,6.53
2018-07-17T06:21:25.199Z,5.43
2018-07-17T06:26:28.526Z,6.33
2018-07-17T06:31:31.863Z,5.10
2018-07-17T06:36:35.963Z,5.17
2018-07-17T06:41:39.582Z,5.57
2018-07-17T06:46:42.917Z,5.47
2018-07-17T06:51:46.246Z,5.03
2018-07-17T06:56:50.347Z,4.13
2018-07-17T07:01:53.673Z,5.17
2018-07-17T07:06:57.009Z,4.77
2018-07-17T07:12:01.175Z,4.27
2018-07-17T07:17:05.227Z,5.20
2018-07-17T07:22:08.565Z,4.27
2018-07-17T07:27:11.890Z,4.80
2018-07-17T07:32:15.981Z,4.57
2018-07-17T07:37:19.315Z,4.30
2018-07-17T07:42:23.418Z,4.20
2018-07-17T07:47:26.753Z,3.50
2018-07-17T07:52:30.084Z,4.40
2018-07-17T07:57:34.180Z,4.30
2018-07-17T08:02:37.512Z,4.30
2018-07-17T08:07:40.842Z,3.30
2018-07-17T08:12:44.936Z,4.00
2018-07-17T08:17:48.273Z,3.93
2018-07-17T08:22:52.379Z,4.40
2018-07-17T08:27:55.715Z,4.30
2018-07-17T08:32:59.810Z,3.43
2018-07-17T08:38:03.134Z,3.60
2018-07-17T08:43:06.462Z,3.30
2018-07-17T08:48:09.794Z,3.73
2018-07-17T08:53:13.887Z,3.93
2018-07-17T08:58:17.211Z,3.80
2018-07-17T09:03:20.563Z,3.30
2018-07-17T09:08:23.895Z,3.10
2018-07-17T09:13:27.240Z,3.00
2018-07-17T09:18:30.580Z,2.93
2018-07-17T09:23:33.905Z,2.47
2018-07-17T09:28:38.002Z,2.33
2018-07-17T09:33:41.403Z,2.70
2018-07-17T09:38:44.691Z,2.20
2018-07-17T09:43:48.020Z,2.40
2018-07-17T09:48:51.354Z,2.77
2018-07-17T09:53:54.698Z,2.33
2018-07-17T09:58:58.033Z,2.47
2018-07-17T10:04:01.372Z,2.60
2018-07-17T10:09:04.791Z,2.47
2018-07-17T10:14:08.138Z,2.60
2018-07-17T10:19:11.473Z,2.60
2018-07-17T10:24:14.802Z,2.70
2018-07-17T10:29:18.158Z,2.57
2018-07-17T10:34:21.512Z,2.73
2018-07-17T10:39:24.871Z,2.63
2018-07-17T10:44:28.207Z,2.60
2018-07-17T10:49:31.794Z,2.50
2018-07-17T10:54:35.245Z,2.60
2018-07-17T10:59:38.584Z,2.50
2018-07-17T11:04:41.963Z,2.47
2018-07-17T11:09:45.315Z,2.40
2018-07-17T11:14:48.758Z,2.70
2018-07-17T11:19:52.112Z,2.60
2018-07-17T11:24:55.683Z,3.00
2018-07-17T11:29:59.910Z,2.60
2018-07-17T11:35:03.675Z,2.30
2018-07-17T11:40:07.026Z,2.70
2018-07-17T11:45:10.357Z,3.00
2018-07-17T11:50:13.704Z,3.27
2018-07-17T11:55:17.918Z,3.20
2018-07-17T12:00:21.273Z,3.13
2018-07-17T12:05:24.788Z,3.00
2018-07-17T12:10:28.160Z,2.80
2018-07-17T12:15:31.515Z,2.70
2018-07-17T12:20:35.106Z,2.80
2018-07-17T12:25:38.341Z,2.87
2018-07-17T12:30:41.676Z,2.23
2018-07-17T12:35:45.017Z,1.77
2018-07-17T12:40:48.370Z,1.60
2018-07-17T12:45:51.707Z,1.40
2018-07-17T12:50:55.052Z,1.20
2018-07-17T12:55:58.387Z,1.67
2018-07-17T13:01:01.719Z,1.10
2018-07-17T13:06:05.058Z,1.70
2018-07-17T13:11:09.154Z,1.63
2018-07-17T13:16:12.495Z,1.60
2018-07-17T13:21:16.585Z,1.10
2018-07-17T13:26:19.918Z,1.70
2018-07-17T13:31:23.254Z,1.23
2018-07-17T13:36:27.358Z,1.23
2018-07-17T13:41:30.695Z,1.50
2018-07-17T13:46:34.018Z,1.47
2018-07-17T13:51:37.350Z,1.60
2018-07-17T13:56:40.675Z,1.60
2018-07-17T14:01:44.004Z,1.70
2018-07-17T14:06:47.491Z,1.57
2018-07-17T14:11:50.789Z,1.67
2018-07-17T14:16:54.134Z,2.00
2018-07-17T14:21:57.464Z,1.90
2018-07-17T14:27:00.793Z,2.30
2018-07-17T14:32:04.132Z,2.33
2018-07-17T14:37:08.227Z,2.20
2018-07-17T14:42:11.555Z,2.40
2018-07-17T14:47:15.650Z,2.40
2018-07-17T14:52:18.988Z,2.30
2018-07-17T14:57:22.332Z,3.60
2018-07-17T15:02:25.666Z,3.37
2018-07-17T15:07:28.999Z,3.90
2018-07-17T15:12:32.332Z,2.70
2018-07-17T15:17:35.678Z,2.30
2018-07-17T15:22:39.767Z,1.90
2018-07-17T15:27:43.128Z,1.80
2018-07-17T15:32:47.231Z,2.40
2018-07-17T15:37:50.675Z,2.20
2018-07-17T15:42:54.342Z,3.43
2018-07-17T15:47:57.695Z,2.77
2018-07-17T15:53:01.906Z,2.03
2018-07-17T15:58:05.348Z,1.73
2018-07-17T16:03:09.476Z,1.90
2018-07-17T16:08:12.932Z,2.07
2018-07-17T16:13:16.771Z,1.80
2018-07-17T16:18:20.123Z,1.70
2018-07-17T16:23:23.455Z,1.80
2018-07-17T16:28:26.802Z,1.80
2018-07-17T16:33:30.128Z,1.70
2018-07-17T16:38:33.562Z,1.70
2018-07-17T16:43:36.902Z,1.23
2018-07-17T16:48:40.991Z,1.20
2018-07-17T16:53:44.317Z,1.60
2018-07-17T16:58:47.647Z,1.40
2018-07-17T17:03:50.979Z,1.40
2018-07-17T17:08:54.395Z,1.63
2018-07-17T17:13:57.670Z,1.70
2018-07-17T17:19:01.003Z,1.70
2018-07-17T17:24:04.433Z,1.90
2018-07-17T17:29:07.683Z,2.93
2018-07-17T17:34:11.059Z,4.10
2018-07-17T17:39:14.399Z,4.17
2018-07-17T17:44:17.727Z,4.27
2018-07-17T17:49:21.642Z,5.07
2018-07-17T17:54:24.968Z,5.23
2018-07-17T17:59:28.298Z,5.40
2018-07-17T18:04:31.656Z,5.07
2018-07-17T18:09:35.095Z,5.10
2018-07-17T18:14:38.708Z,5.57
2018-07-17T18:19:42.074Z,5.20
2018-07-17T18:24:46.575Z,4.97
2018-07-17T18:29:49.914Z,4.23
2018-07-17T18:34:53.491Z,3.80
2018-07-17T18:39:57.115Z,4.20
2018-07-17T18:45:00.556Z,3.90
2018-07-17T18:50:12.586Z,3.40
2018-07-17T18:55:07.399Z,3.00
2018-07-17T19:00:11.494Z,3.80
2018-07-17T19:05:14.851Z,3.40
2018-07-17T19:10:19.283Z,2.93
2018-07-17T19:15:23.384Z,4.03
2018-07-17T19:20:27.580Z,2.60
2018-07-17T19:25:30.915Z,2.30
2018-07-17T19:30:35.025Z,2.30
2018-07-17T19:35:38.370Z,2.37
2018-07-17T19:40:41.773Z,2.37
2018-07-17T19:45:45.838Z,1.70
2018-07-17T19:50:49.211Z,2.60
2018-07-17T19:55:52.559Z,2.40
2018-07-17T20:00:55.882Z,2.20
2018-07-17T20:05:59.211Z,2.40
2018-07-17T20:11:02.656Z,2.30
2018-07-17T20:16:05.993Z,2.03
2018-07-17T20:21:09.443Z,2.40
2018-07-17T20:26:12.796Z,2.50
2018-07-17T20:31:16.242Z,2.40
2018-07-17T20:36:19.843Z,2.50
2018-07-17T20:41:23.170Z,2.77
2018-07-17T20:46:26.494Z,1.90
2018-07-17T20:51:29.831Z,2.20
2018-07-17T20:56:33.926Z,2.50
2018-07-17T21:01:37.630Z,2.27
2018-07-17T21:06:40.955Z,2.37
2018-07-17T21:11:44.296Z,2.23
2018-07-17T21:16:47.635Z,2.20
2018-07-17T21:21:51.091Z,2.10
2018-07-17T21:26:54.450Z,2.53
2018-07-17T21:31:58.545Z,2.20
2018-07-17T21:37:01.903Z,2.37
2018-07-17T21:42:06.006Z,2.57
2018-07-17T21:47:09.369Z,2.20
2018-07-17T21:52:12.815Z,2.33
2018-07-17T21:57:16.152Z,2.77
2018-07-17T22:02:19.579Z,2.40
2018-07-17T22:07:23.802Z,2.27
2018-07-17T22:12:27.898Z,2.30
2018-07-17T22:17:31.336Z,2.27
2018-07-17T22:22:34.788Z,2.33
2018-07-17T22:27:38.236Z,2.50
